Time;durP1;ratioP1;P1;durP2;ratioP2;P2;SDS_P1;SDS_P2;PMS_P1;PMS_P2;Temp;Humidity;BMP_temperature;BMP_pressure;BME280_temperature;BME280_humidity;BME280_pressure;Samples;Min_cycle;Max_cycle;Signal;HPM_P1;HPM_P2
2021/04/25 00:01:29;0.00;0.00;0.62;0.00;0.00;0.62;1.40;0.87;;;25.30;21.80;;;;;;2265141;61;20362;-66
2021/04/25 00:03:56;0.00;0.00;0.62;0.00;0.00;0.62;1.97;1.20;;;25.30;21.80;;;;;;2265262;61;20379;-65
2021/04/25 00:06:23;0.00;0.00;0.62;0.00;0.00;0.62;2.63;0.90;;;25.30;21.80;;;;;;2265062;61;20355;-66
2021/04/25 00:08:50;0.00;0.00;0.62;0.00;0.00;0.62;1.80;1.10;;;25.30;21.80;;;;;;2265463;61;20446;-62
2021/04/25 00:11:16;0.00;0.00;0.62;0.00;0.00;0.62;2.23;1.20;;;25.20;21.70;;;;;;2265730;61;20372;-63
2021/04/25 00:13:43;0.00;0.00;0.62;0.00;0.00;0.62;1.60;1.00;;;25.30;21.80;;;;;;2265122;61;20378;-63
2021/04/25 00:16:10;0.00;0.00;0.62;0.00;0.00;0.62;1.50;1.20;;;25.20;21.80;;;;;;2265630;61;20706;-62
2021/04/25 00:18:38;0.00;0.00;0.62;0.00;0.00;0.62;1.80;0.90;;;25.20;21.80;;;;;;2265599;61;20442;-65
2021/04/25 00:21:05;0.00;0.00;0.62;0.00;0.00;0.62;1.70;1.00;;;25.20;21.80;;;;;;2264879;61;20346;-63
2021/04/25 00:23:33;0.00;0.00;0.62;0.00;0.00;0.62;1.80;1.20;;;25.20;21.80;;;;;;2265371;61;20438;-64
2021/04/25 00:26:00;0.00;0.00;0.62;0.00;0.00;0.62;2.17;1.10;;;25.20;21.80;;;;;;2265606;61;20635;-65
2021/04/25 00:28:26;0.00;0.00;0.62;0.00;0.00;0.62;1.93;0.90;;;25.30;21.90;;;;;;2264919;61;20361;-65
2021/04/25 00:30:53;0.00;0.00;0.62;0.00;0.00;0.62;1.50;1.00;;;25.20;21.80;;;;;;2265317;61;20355;-64
2021/04/25 00:33:20;0.00;0.00;0.62;0.00;0.00;0.62;2.10;0.90;;;25.20;21.80;;;;;;2265592;61;20428;-64
2021/04/25 00:35:47;0.00;0.00;0.62;0.00;0.00;0.62;1.30;0.90;;;25.20;21.80;;;;;;2264791;61;20382;-65
2021/04/25 00:38:13;0.00;0.00;0.62;0.00;0.00;0.62;1.23;0.80;;;25.20;21.80;;;;;;2265426;61;20355;-66
2021/04/25 00:40:41;0.00;0.00;0.62;0.00;0.00;0.62;1.50;1.00;;;25.20;21.90;;;;;;2265388;61;20354;-63
2021/04/25 00:43:07;0.00;0.00;0.62;0.00;0.00;0.62;1.37;1.00;;;25.20;21.90;;;;;;2264936;61;20712;-66
2021/04/25 00:45:34;0.00;0.00;0.62;0.00;0.00;0.62;1.60;1.00;;;25.20;21.90;;;;;;2265356;61;20362;-64
2021/04/25 00:48:00;0.00;0.00;0.62;0.00;0.00;0.62;1.50;1.00;;;25.20;21.90;;;;;;2265629;61;20618;-65
2021/04/25 00:50:27;0.00;0.00;0.62;0.00;0.00;0.62;1.50;0.73;;;25.20;21.90;;;;;;2264632;61;20359;-64
2021/04/25 00:52:58;0.00;0.00;0.62;0.00;0.00;0.62;1.90;1.10;;;25.20;22.00;;;;;;2264936;61;20738;-64
2021/04/25 00:55:29;0.00;0.00;0.62;0.00;0.00;0.62;1.40;0.93;;;25.20;22.00;;;;;;2265436;61;20414;-65
2021/04/25 00:58:00;0.00;0.00;0.62;0.00;0.00;0.62;2.07;1.00;;;25.10;22.00;;;;;;2264979;61;20361;-65
2021/04/25 01:00:27;0.00;0.00;0.62;0.00;0.00;0.62;1.60;0.90;;;25.10;21.90;;;;;;2265460;61;20707;-62
2021/04/25 01:02:54;0.00;0.00;0.62;0.00;0.00;0.62;1.40;1.03;;;25.10;21.90;;;;;;2265609;61;20374;-65
2021/04/25 01:05:22;0.00;0.00;0.62;0.00;0.00;0.62;1.50;0.90;;;25.10;21.90;;;;;;2264827;61;20355;-64
2021/04/25 01:07:49;0.00;0.00;0.62;0.00;0.00;0.62;1.70;1.30;;;25.10;21.90;;;;;;2265319;61;20707;-64
2021/04/25 01:10:17;0.00;0.00;0.62;0.00;0.00;0.62;1.60;0.90;;;25.10;21.80;;;;;;2265715;61;20354;-63
2021/04/25 01:12:45;0.00;0.00;0.62;0.00;0.00;0.62;1.50;1.00;;;25.10;21.80;;;;;;2264786;61;20501;-64
2021/04/25 01:15:16;0.00;0.00;0.62;0.00;0.00;0.62;1.60;1.30;;;25.10;21.80;;;;;;2264774;61;20398;-63
2021/04/25 01:17:46;0.00;0.00;0.62;0.00;0.00;0.62;2.13;1.10;;;25.10;21.80;;;;;;2265373;61;20365;-64
2021/04/25 01:20:18;0.00;0.00;0.62;0.00;0.00;0.62;2.10;1.10;;;25.10;21.70;;;;;;2264779;61;20347;-64
2021/04/25 01:22:46;0.00;0.00;0.62;0.00;0.00;0.62;1.70;1.20;;;25.00;21.60;;;;;;2265155;61;20375;-64
2021/04/25 01:25:15;0.00;0.00;0.62;0.00;0.00;0.62;2.20;1.40;;;25.00;21.60;;;;;;2265362;61;20382;-64
2021/04/25 01:27:42;0.00;0.00;0.62;0.00;0.00;0.62;2.10;1.47;;;25.00;21.60;;;;;;2264785;61;20359;-64
2021/04/25 01:30:13;0.00;0.00;0.62;0.00;0.00;0.62;2.17;1.57;;;25.00;21.50;;;;;;2265926;61;20420;-64
2021/04/25 01:32:42;0.00;0.00;0.62;0.00;0.00;0.62;2.17;1.63;;;24.90;21.50;;;;;;2265942;61;20488;-63
2021/04/25 01:35:14;0.00;0.00;0.62;0.00;0.00;0.62;2.10;1.60;;;24.90;21.40;;;;;;2265577;61;20420;-63
2021/04/25 01:37:41;0.00;0.00;0.62;0.00;0.00;0.62;1.90;1.40;;;24.90;21.40;;;;;;2266000;61;20359;-64
2021/04/25 01:40:10;0.00;0.00;0.62;0.00;0.00;0.62;2.60;1.70;;;24.90;21.40;;;;;;2265962;61;20359;-64
2021/04/25 01:42:37;0.00;0.00;0.62;0.00;0.00;0.62;1.93;1.40;;;24.80;21.40;;;;;;2265432;61;20359;-64
2021/04/25 01:45:05;0.00;0.00;0.62;0.00;0.00;0.62;3.47;1.90;;;24.80;21.30;;;;;;2265883;61;20706;-64
2021/04/25 01:47:32;0.00;0.00;0.62;0.00;0.00;0.62;3.50;1.90;;;24.80;21.40;;;;;;2266058;61;20718;-63
2021/04/25 01:49:59;0.00;0.00;0.62;0.00;0.00;0.62;2.70;1.77;;;24.70;21.30;;;;;;2265484;61;20354;-63
2021/04/25 01:52:26;0.00;0.00;0.62;0.00;0.00;0.62;3.03;1.70;;;24.70;21.30;;;;;;2265671;61;20698;-64
2021/04/25 01:54:52;0.00;0.00;0.62;0.00;0.00;0.62;2.70;1.50;;;24.70;21.30;;;;;;2266125;61;20615;-64
2021/04/25 01:57:20;0.00;0.00;0.62;0.00;0.00;0.62;2.60;1.90;;;24.70;21.40;;;;;;2265467;61;20354;-64
2021/04/25 01:59:46;0.00;0.00;0.62;0.00;0.00;0.62;3.97;1.90;;;24.60;21.30;;;;;;2265698;61;20363;-64
2021/04/25 02:02:13;0.00;0.00;0.62;0.00;0.00;0.62;3.00;1.70;;;24.60;21.30;;;;;;2266028;61;20358;-63
2021/04/25 02:04:39;0.00;0.00;0.62;0.00;0.00;0.62;3.80;2.37;;;24.60;21.30;;;;;;2265456;61;20367;-64
2021/04/25 02:07:06;0.00;0.00;0.62;0.00;0.00;0.62;2.83;2.17;;;24.50;21.30;;;;;;2265693;61;20351;-64
2021/04/25 02:09:33;0.00;0.00;0.62;0.00;0.00;0.62;4.03;2.57;;;24.50;21.20;;;;;;2266163;61;20412;-64
2021/04/25 02:11:59;0.00;0.00;0.62;0.00;0.00;0.62;2.47;1.70;;;24.50;21.30;;;;;;2265273;61;20354;-63
2021/04/25 02:14:27;0.00;0.00;0.62;0.00;0.00;0.62;2.70;1.97;;;24.50;21.30;;;;;;2265659;61;20382;-64
2021/04/25 02:16:53;0.00;0.00;0.62;0.00;0.00;0.62;4.03;1.93;;;24.50;21.20;;;;;;2265981;61;20362;-64
2021/04/25 02:19:20;0.00;0.00;0.62;0.00;0.00;0.62;3.30;1.93;;;24.40;21.20;;;;;;2265221;61;20351;-63
2021/04/25 02:21:47;0.00;0.00;0.62;0.00;0.00;0.62;3.00;1.90;;;24.40;21.20;;;;;;2265610;61;20578;-64
2021/04/25 02:24:14;0.00;0.00;0.62;0.00;0.00;0.62;2.50;1.57;;;24.30;21.10;;;;;;2265986;61;20446;-64
2021/04/25 02:26:41;0.00;0.00;0.62;0.00;0.00;0.62;3.77;1.93;;;24.30;21.10;;;;;;2265363;61;20366;-63
2021/04/25 02:29:08;0.00;0.00;0.62;0.00;0.00;0.62;1.97;1.67;;;24.30;21.10;;;;;;2265702;61;20350;-64
2021/04/25 02:31:35;0.00;0.00;0.62;0.00;0.00;0.62;2.70;2.10;;;24.30;21.10;;;;;;2265972;61;20381;-63
2021/04/25 02:34:02;0.00;0.00;0.62;0.00;0.00;0.62;4.10;2.43;;;24.30;21.10;;;;;;2265471;61;20382;-64
2021/04/25 02:36:29;0.00;0.00;0.62;0.00;0.00;0.62;3.10;2.13;;;24.20;21.00;;;;;;2265530;61;20413;-64
2021/04/25 02:38:55;0.00;0.00;0.62;0.00;0.00;0.62;3.30;2.50;;;24.20;21.10;;;;;;2266056;61;20365;-64
2021/04/25 02:41:22;0.00;0.00;0.62;0.00;0.00;0.62;3.73;1.93;;;24.20;21.00;;;;;;2265152;61;20362;-64
2021/04/25 02:43:48;0.00;0.00;0.62;0.00;0.00;0.62;3.63;2.50;;;24.10;21.00;;;;;;2265478;61;20418;-63
2021/04/25 02:46:15;0.00;0.00;0.62;0.00;0.00;0.62;4.67;2.23;;;24.10;21.00;;;;;;2265339;61;20347;-63
2021/04/25 02:48:42;0.00;0.00;0.62;0.00;0.00;0.62;2.73;1.97;;;24.10;21.00;;;;;;2265569;61;20801;-65
2021/04/25 02:51:09;0.00;0.00;0.62;0.00;0.00;0.62;4.90;2.27;;;24.10;21.00;;;;;;2265335;61;20773;-63
2021/04/25 02:53:36;0.00;0.00;0.62;0.00;0.00;0.62;3.40;2.40;;;24.00;20.90;;;;;;2265936;61;20378;-63
2021/04/25 02:56:03;0.00;0.00;0.62;0.00;0.00;0.62;3.60;1.80;;;24.00;20.90;;;;;;2265435;61;20456;-64
2021/04/25 02:58:30;0.00;0.00;0.62;0.00;0.00;0.62;3.50;2.03;;;24.00;20.90;;;;;;2265456;61;20594;-64
2021/04/25 03:00:57;0.00;0.00;0.62;0.00;0.00;0.62;3.60;2.10;;;24.00;21.00;;;;;;2265685;61;20361;-64
2021/04/25 03:03:25;0.00;0.00;0.62;0.00;0.00;0.62;3.37;2.03;;;23.90;20.80;;;;;;2265406;61;20454;-64
2021/04/25 03:05:55;0.00;0.00;0.62;0.00;0.00;0.62;3.57;2.10;;;23.90;20.90;;;;;;2265206;61;20351;-64
2021/04/25 03:08:22;0.00;0.00;0.62;0.00;0.00;0.62;3.00;2.17;;;24.00;20.90;;;;;;2265864;61;20355;-63
2021/04/25 03:10:49;0.00;0.00;0.62;0.00;0.00;0.62;3.43;2.20;;;23.90;20.90;;;;;;2265364;61;20400;-64
2021/04/25 03:13:16;0.00;0.00;0.62;0.00;0.00;0.62;4.27;1.83;;;23.90;20.90;;;;;;2265303;61;20599;-63
2021/04/25 03:15:43;0.00;0.00;0.62;0.00;0.00;0.62;2.20;1.67;;;23.80;20.80;;;;;;2265770;61;20741;-64
2021/04/25 03:18:09;0.00;0.00;0.62;0.00;0.00;0.62;2.93;1.97;;;23.80;20.80;;;;;;2265388;61;20400;-63
2021/04/25 03:20:37;0.00;0.00;0.62;0.00;0.00;0.62;3.03;1.80;;;23.80;20.80;;;;;;2265074;61;20355;-63
2021/04/25 03:23:04;0.00;0.00;0.62;0.00;0.00;0.62;3.07;1.80;;;23.80;20.80;;;;;;2265742;61;20428;-63
2021/04/25 03:25:31;0.00;0.00;0.62;0.00;0.00;0.62;2.90;2.17;;;23.80;21.30;;;;;;2265478;61;20710;-63
2021/04/25 03:28:00;0.00;0.00;0.62;0.00;0.00;0.62;2.90;2.00;;;23.70;20.70;;;;;;2264859;61;20362;-63
2021/04/25 03:30:27;0.00;0.00;0.62;0.00;0.00;0.62;2.73;2.00;;;23.70;20.70;;;;;;2265603;61;20363;-63
2021/04/25 03:32:53;0.00;0.00;0.62;0.00;0.00;0.62;4.20;2.30;;;23.70;20.70;;;;;;2265409;61;20386;-64
2021/04/25 03:35:21;0.00;0.00;0.62;0.00;0.00;0.62;3.47;2.00;;;23.70;20.70;;;;;;2265251;61;20386;-64
2021/04/25 03:37:48;0.00;0.00;0.62;0.00;0.00;0.62;4.03;1.70;;;23.60;20.70;;;;;;2265652;61;20363;-63
2021/04/25 03:40:19;0.00;0.00;0.62;0.00;0.00;0.62;2.37;1.60;;;23.60;20.70;;;;;;2265415;61;20404;-64
2021/04/25 03:42:46;0.00;0.00;0.62;0.00;0.00;0.62;3.93;2.23;;;23.60;20.70;;;;;;2265070;61;20386;-64
2021/04/25 03:45:14;0.00;0.00;0.62;0.00;0.00;0.62;4.30;2.10;;;23.50;20.60;;;;;;2265624;61;20355;-64
2021/04/25 03:47:43;0.00;0.00;0.62;0.00;0.00;0.62;2.10;1.70;;;23.50;20.60;;;;;;2265596;61;20390;-64
2021/04/25 03:50:11;0.00;0.00;0.62;0.00;0.00;0.62;3.30;1.97;;;23.50;20.60;;;;;;2265212;61;20373;-64
2021/04/25 03:52:38;0.00;0.00;0.62;0.00;0.00;0.62;2.53;1.93;;;23.50;20.60;;;;;;2265444;61;20358;-64
2021/04/25 03:55:06;0.00;0.00;0.62;0.00;0.00;0.62;3.33;2.23;;;23.50;20.60;;;;;;2265543;61;20491;-63
2021/04/25 03:57:34;0.00;0.00;0.62;0.00;0.00;0.62;2.33;1.70;;;23.40;20.50;;;;;;2265075;61;20351;-64
2021/04/25 04:00:00;0.00;0.00;0.62;0.00;0.00;0.62;4.13;2.50;;;23.40;20.50;;;;;;2265544;61;20359;-64
2021/04/25 04:02:27;0.00;0.00;0.62;0.00;0.00;0.62;3.20;2.17;;;23.40;20.50;;;;;;2265317;61;20353;-64
2021/04/25 04:04:54;0.00;0.00;0.62;0.00;0.00;0.62;3.70;2.00;;;23.40;20.50;;;;;;2265127;61;20390;-64
2021/04/25 04:07:20;0.00;0.00;0.62;0.00;0.00;0.62;4.13;2.27;;;23.30;20.50;;;;;;2265543;61;20404;-64
2021/04/25 04:09:47;0.00;0.00;0.62;0.00;0.00;0.62;2.80;2.23;;;23.30;20.40;;;;;;2265473;61;20352;-63
2021/04/25 04:12:13;0.00;0.00;0.62;0.00;0.00;0.62;2.37;2.00;;;23.30;20.40;;;;;;2264916;61;20589;-64
2021/04/25 04:14:42;0.00;0.00;0.62;0.00;0.00;0.62;3.53;2.70;;;23.30;20.40;;;;;;2265533;61;20580;-64
2021/04/25 04:17:08;0.00;0.00;0.62;0.00;0.00;0.62;3.53;2.10;;;23.30;20.40;;;;;;2265368;61;20385;-63
2021/04/25 04:19:35;0.00;0.00;0.62;0.00;0.00;0.62;3.13;2.30;;;23.20;20.40;;;;;;2264899;61;20378;-63
2021/04/25 04:22:02;0.00;0.00;0.62;0.00;0.00;0.62;3.57;2.47;;;23.20;20.40;;;;;;2265383;61;20369;-64
2021/04/25 04:24:28;0.00;0.00;0.62;0.00;0.00;0.62;3.30;2.10;;;23.20;20.40;;;;;;2265315;61;20374;-64
2021/04/25 04:26:55;0.00;0.00;0.62;0.00;0.00;0.62;4.23;2.30;;;23.20;20.40;;;;;;2264905;61;20358;-63
2021/04/25 04:29:21;0.00;0.00;0.62;0.00;0.00;0.62;2.97;2.10;;;23.20;20.40;;;;;;2265544;61;20706;-64
2021/04/25 04:31:49;0.00;0.00;0.62;0.00;0.00;0.62;2.80;2.30;;;23.10;20.40;;;;;;2265257;61;20699;-64
2021/04/25 04:34:15;0.00;0.00;0.62;0.00;0.00;0.62;2.47;2.20;;;23.10;20.40;;;;;;2264914;61;20461;-65
2021/04/25 04:36:42;0.00;0.00;0.62;0.00;0.00;0.62;4.57;2.30;;;23.10;20.40;;;;;;2265483;61;20362;-65
2021/04/25 04:39:09;0.00;0.00;0.62;0.00;0.00;0.62;2.93;2.10;;;23.10;20.40;;;;;;2265216;61;20743;-64
2021/04/25 04:41:35;0.00;0.00;0.62;0.00;0.00;0.62;3.43;2.30;;;23.10;20.40;;;;;;2264675;61;20358;-64
2021/04/25 04:44:03;0.00;0.00;0.62;0.00;0.00;0.62;3.73;2.07;;;23.10;20.40;;;;;;2265558;61;20377;-64
2021/04/25 04:46:29;0.00;0.00;0.62;0.00;0.00;0.62;3.03;2.27;;;23.10;20.40;;;;;;2265188;61;20723;-64
2021/04/25 04:48:57;0.00;0.00;0.62;0.00;0.00;0.62;4.10;2.30;;;23.00;20.30;;;;;;2264868;61;20725;-65
2021/04/25 04:51:23;0.00;0.00;0.62;0.00;0.00;0.62;2.50;2.23;;;23.00;20.30;;;;;;2265480;61;20351;-65
2021/04/25 04:53:50;0.00;0.00;0.62;0.00;0.00;0.62;3.30;2.00;;;23.00;20.30;;;;;;2265184;61;20400;-64
2021/04/25 04:56:17;0.00;0.00;0.62;0.00;0.00;0.62;3.10;2.40;;;22.90;20.30;;;;;;2264765;61;20375;-64
2021/04/25 04:58:43;0.00;0.00;0.62;0.00;0.00;0.62;3.50;2.33;;;23.00;20.30;;;;;;2265705;61;20355;-65
2021/04/25 05:01:10;0.00;0.00;0.62;0.00;0.00;0.62;3.50;2.47;;;22.90;20.30;;;;;;2264456;61;20366;-64
2021/04/25 05:03:36;0.00;0.00;0.62;0.00;0.00;0.62;2.97;2.07;;;22.90;20.30;;;;;;2264731;61;20378;-64
2021/04/25 05:06:04;0.00;0.00;0.62;0.00;0.00;0.62;4.13;2.47;;;22.90;20.30;;;;;;2265460;61;20354;-64
2021/04/25 05:08:31;0.00;0.00;0.62;0.00;0.00;0.62;3.20;2.00;;;22.90;20.30;;;;;;2265235;61;20363;-64
2021/04/25 05:10:58;0.00;0.00;0.62;0.00;0.00;0.62;4.87;2.20;;;22.90;20.40;;;;;;2264579;61;20346;-64
2021/04/25 05:13:24;0.00;0.00;0.62;0.00;0.00;0.62;3.70;2.20;;;22.90;20.40;;;;;;2265526;61;20382;-64
2021/04/25 05:15:51;0.00;0.00;0.62;0.00;0.00;0.62;3.53;2.23;;;22.80;20.30;;;;;;2265397;61;20440;-64
2021/04/25 05:18:18;0.00;0.00;0.62;0.00;0.00;0.62;3.47;2.27;;;22.80;20.30;;;;;;2264616;61;20457;-64
2021/04/25 05:20:44;0.00;0.00;0.62;0.00;0.00;0.62;3.20;2.00;;;22.80;20.30;;;;;;2265252;61;20357;-64
2021/04/25 05:23:12;0.00;0.00;0.62;0.00;0.00;0.62;3.10;2.20;;;22.80;20.30;;;;;;2265300;61;20719;-64
2021/04/25 05:25:38;0.00;0.00;0.62;0.00;0.00;0.62;3.10;2.10;;;22.80;20.30;;;;;;2264557;61;20415;-64
2021/04/25 05:28:05;0.00;0.00;0.62;0.00;0.00;0.62;3.20;1.90;;;22.80;20.30;;;;;;2265554;61;20366;-64
2021/04/25 05:30:32;0.00;0.00;0.62;0.00;0.00;0.62;2.90;2.40;;;22.80;20.40;;;;;;2265304;61;20351;-64
2021/04/25 05:32:58;0.00;0.00;0.62;0.00;0.00;0.62;2.30;1.90;;;22.80;20.40;;;;;;2264460;61;20393;-64
2021/04/25 05:35:25;0.00;0.00;0.62;0.00;0.00;0.62;2.97;2.10;;;22.70;20.30;;;;;;2264927;61;20378;-64
2021/04/25 05:37:52;0.00;0.00;0.62;0.00;0.00;0.62;3.87;2.07;;;22.70;20.40;;;;;;2265265;61;20412;-64
2021/04/25 05:40:19;0.00;0.00;0.62;0.00;0.00;0.62;4.00;2.50;;;22.70;20.40;;;;;;2264411;61;20358;-65
2021/04/25 05:42:46;0.00;0.00;0.62;0.00;0.00;0.62;3.53;1.97;;;22.70;20.40;;;;;;2265291;61;20379;-64
2021/04/25 05:45:22;0.00;0.00;0.62;0.00;0.00;0.62;3.80;1.90;;;22.70;20.40;;;;;;2265263;61;20343;-64
2021/04/25 05:47:52;0.00;0.00;0.62;0.00;0.00;0.62;2.40;2.13;;;22.70;20.40;;;;;;2264573;61;20383;-64
2021/04/25 05:50:21;0.00;0.00;0.62;0.00;0.00;0.62;2.00;1.80;;;22.70;20.50;;;;;;2265444;61;20433;-64
2021/04/25 05:52:47;0.00;0.00;0.62;0.00;0.00;0.62;4.60;2.10;;;22.70;20.50;;;;;;2265156;61;20603;-64
2021/04/25 05:55:15;0.00;0.00;0.62;0.00;0.00;0.62;3.67;2.00;;;22.60;20.40;;;;;;2264558;61;20369;-64
2021/04/25 05:57:43;0.00;0.00;0.62;0.00;0.00;0.62;2.50;2.00;;;22.60;20.40;;;;;;2265346;61;20370;-64
2021/04/25 06:00:14;0.00;0.00;0.62;0.00;0.00;0.62;3.00;1.87;;;22.70;20.40;;;;;;2265168;61;20706;-64
2021/04/25 06:02:40;0.00;0.00;0.62;0.00;0.00;0.62;3.83;2.00;;;22.60;20.40;;;;;;2264483;61;20610;-65
2021/04/25 06:05:09;0.00;0.00;0.62;0.00;0.00;0.62;2.70;1.90;;;22.60;20.40;;;;;;2265236;61;20398;-64
2021/04/25 06:07:36;0.00;0.00;0.62;0.00;0.00;0.62;3.83;2.20;;;22.60;20.40;;;;;;2265274;61;20358;-64
2021/04/25 06:10:03;0.00;0.00;0.62;0.00;0.00;0.62;2.70;2.03;;;22.60;20.40;;;;;;2264639;61;20695;-65
2021/04/25 06:12:30;0.00;0.00;0.62;0.00;0.00;0.62;3.73;1.80;;;22.60;20.40;;;;;;2265326;61;20753;-65
2021/04/25 06:14:57;0.00;0.00;0.62;0.00;0.00;0.62;3.23;2.10;;;22.60;20.40;;;;;;2265095;61;20410;-63
2021/04/25 06:17:24;0.00;0.00;0.62;0.00;0.00;0.62;4.07;1.90;;;22.60;20.40;;;;;;2265209;61;20415;-63
2021/04/25 06:19:51;0.00;0.00;0.62;0.00;0.00;0.62;2.57;1.70;;;22.60;20.40;;;;;;2265851;61;20362;-63
2021/04/25 06:22:18;0.00;0.00;0.62;0.00;0.00;0.62;2.83;2.17;;;22.60;20.40;;;;;;2265915;61;20354;-63
2021/04/25 06:24:44;0.00;0.00;0.62;0.00;0.00;0.62;2.87;1.60;;;22.60;20.40;;;;;;2265195;61;20370;-64
2021/04/25 06:27:11;0.00;0.00;0.62;0.00;0.00;0.62;2.27;1.60;;;22.60;20.40;;;;;;2265860;61;20347;-64
2021/04/25 06:29:38;0.00;0.00;0.62;0.00;0.00;0.62;3.00;1.80;;;22.60;20.40;;;;;;2265968;61;20359;-63
2021/04/25 06:32:06;0.00;0.00;0.62;0.00;0.00;0.62;2.27;1.97;;;22.60;20.40;;;;;;2265061;61;20473;-63
2021/04/25 06:34:32;0.00;0.00;0.62;0.00;0.00;0.62;2.70;1.80;;;22.60;20.40;;;;;;2265842;61;20500;-64
2021/04/25 06:36:59;0.00;0.00;0.62;0.00;0.00;0.62;2.90;1.60;;;22.60;20.40;;;;;;2265949;61;20362;-64
2021/04/25 06:39:25;0.00;0.00;0.62;0.00;0.00;0.62;2.53;1.70;;;22.60;20.40;;;;;;2265019;61;20366;-64
2021/04/25 06:41:52;0.00;0.00;0.62;0.00;0.00;0.62;2.40;1.50;;;22.60;20.40;;;;;;2265873;61;20358;-63
2021/04/25 06:44:18;0.00;0.00;0.62;0.00;0.00;0.62;3.60;1.50;;;22.60;20.40;;;;;;2265863;61;20370;-64
2021/04/25 06:46:45;0.00;0.00;0.62;0.00;0.00;0.62;2.50;1.63;;;22.50;20.30;;;;;;2264572;61;20727;-63
2021/04/25 06:49:12;0.00;0.00;0.62;0.00;0.00;0.62;4.03;1.90;;;22.50;20.30;;;;;;2265823;61;20351;-65
2021/04/25 06:51:39;0.00;0.00;0.62;0.00;0.00;0.62;2.57;1.57;;;22.50;20.40;;;;;;2265838;61;20362;-65
2021/04/25 06:54:06;0.00;0.00;0.62;0.00;0.00;0.62;2.57;1.50;;;22.50;20.40;;;;;;2265055;61;20552;-65
2021/04/25 06:56:32;0.00;0.00;0.62;0.00;0.00;0.62;2.70;1.50;;;22.50;20.40;;;;;;2265731;61;20421;-64
2021/04/25 06:58:59;0.00;0.00;0.62;0.00;0.00;0.62;1.83;1.23;;;22.50;20.40;;;;;;2265698;61;20603;-64
2021/04/25 07:01:26;0.00;0.00;0.62;0.00;0.00;0.62;2.87;1.63;;;22.50;20.40;;;;;;2264767;61;20358;-64
2021/04/25 07:03:52;0.00;0.00;0.62;0.00;0.00;0.62;2.90;1.60;;;22.50;20.40;;;;;;2265787;61;20385;-65
2021/04/25 07:06:20;0.00;0.00;0.62;0.00;0.00;0.62;2.20;1.60;;;22.50;20.40;;;;;;2265855;61;20397;-65
2021/04/25 07:08:47;0.00;0.00;0.62;0.00;0.00;0.62;2.83;1.67;;;22.50;20.40;;;;;;2264534;61;20362;-65
2021/04/25 07:11:14;0.00;0.00;0.62;0.00;0.00;0.62;3.60;1.40;;;22.50;20.50;;;;;;2265613;61;20462;-65
2021/04/25 07:13:41;0.00;0.00;0.62;0.00;0.00;0.62;2.80;1.40;;;22.50;20.50;;;;;;2265886;61;20410;-65
2021/04/25 07:16:07;0.00;0.00;0.62;0.00;0.00;0.62;3.10;1.70;;;22.60;20.50;;;;;;2264861;61;20743;-65
2021/04/25 07:18:34;0.00;0.00;0.62;0.00;0.00;0.62;3.63;1.70;;;22.60;20.50;;;;;;2265728;61;20399;-65
2021/04/25 07:21:01;0.00;0.00;0.62;0.00;0.00;0.62;2.00;1.23;;;22.60;20.40;;;;;;2265647;61;20435;-67
2021/04/25 07:23:28;0.00;0.00;0.62;0.00;0.00;0.62;3.23;1.53;;;22.60;20.90;;;;;;2265072;61;20447;-66
2021/04/25 07:25:56;0.00;0.00;0.62;0.00;0.00;0.62;3.47;1.53;;;22.60;20.40;;;;;;2265515;61;20359;-67
2021/04/25 07:28:23;0.00;0.00;0.62;0.00;0.00;0.62;2.87;1.80;;;22.60;20.30;;;;;;2265783;61;20599;-66
2021/04/25 07:30:51;0.00;0.00;0.62;0.00;0.00;0.62;4.03;1.93;;;22.60;20.30;;;;;;2266714;61;20372;-66
2021/04/25 07:33:18;0.00;0.00;0.62;0.00;0.00;0.62;3.37;1.40;;;22.50;20.30;;;;;;2266279;61;20397;-64
2021/04/25 07:35:45;0.00;0.00;0.62;0.00;0.00;0.62;4.40;1.40;;;22.60;20.40;;;;;;2269382;61;20462;-66
2021/04/25 07:38:12;0.00;0.00;0.62;0.00;0.00;0.62;3.53;1.90;;;22.60;20.40;;;;;;2269653;61;20409;-66
2021/04/25 07:40:40;0.00;0.00;0.62;0.00;0.00;0.62;2.80;1.27;;;22.60;20.50;;;;;;2269003;61;20361;-63
2021/04/25 07:43:09;0.00;0.00;0.62;0.00;0.00;0.62;2.17;1.33;;;22.60;20.50;;;;;;2270091;61;20500;-65
2021/04/25 07:45:35;0.00;0.00;0.62;0.00;0.00;0.62;2.87;1.40;;;22.60;20.50;;;;;;2269773;61;20580;-66
2021/04/25 07:48:03;0.00;0.00;0.62;0.00;0.00;0.62;2.37;1.60;;;22.50;20.50;;;;;;2269121;61;20372;-65
2021/04/25 07:50:30;0.00;0.00;0.62;0.00;0.00;0.62;7.17;1.70;;;22.60;20.60;;;;;;2270146;61;20361;-67
2021/04/25 07:52:56;0.00;0.00;0.62;0.00;0.00;0.62;3.90;1.33;;;22.60;20.60;;;;;;2269657;61;20456;-64
2021/04/25 07:55:23;0.00;0.00;0.62;0.00;0.00;0.62;2.10;1.40;;;22.60;20.60;;;;;;2269231;61;20448;-64
2021/04/25 07:57:50;0.00;0.00;0.62;0.00;0.00;0.62;2.73;1.30;;;22.60;20.60;;;;;;2269511;61;20423;-64
2021/04/25 08:00:18;0.00;0.00;0.62;0.00;0.00;0.62;3.60;1.43;;;22.60;21.00;;;;;;2269740;61;20365;-65
2021/04/25 08:02:44;0.00;0.00;0.62;0.00;0.00;0.62;2.33;1.30;;;22.60;20.40;;;;;;2269131;61;20373;-67
2021/04/25 08:05:12;0.00;0.00;0.62;0.00;0.00;0.62;1.60;1.17;;;22.60;20.40;;;;;;2270039;61;20446;-64
2021/04/25 08:07:39;0.00;0.00;0.62;0.00;0.00;0.62;5.20;1.80;;;22.60;20.40;;;;;;2269611;61;20444;-66
2021/04/25 08:10:08;0.00;0.00;0.62;0.00;0.00;0.62;3.10;1.47;;;22.70;20.40;;;;;;2268766;61;20675;-65
2021/04/25 08:12:34;0.00;0.00;0.62;0.00;0.00;0.62;3.20;1.60;;;22.60;20.30;;;;;;2269916;61;20362;-68
2021/04/25 08:15:03;0.00;0.00;0.62;0.00;0.00;0.62;2.07;1.00;;;22.70;20.30;;;;;;2269611;61;20709;-67
2021/04/25 08:17:30;0.00;0.00;0.62;0.00;0.00;0.62;1.80;1.10;;;22.70;20.40;;;;;;2269213;61;20597;-65
2021/04/25 08:19:56;0.00;0.00;0.62;0.00;0.00;0.62;3.97;1.30;;;22.70;20.40;;;;;;2269805;61;20577;-63
2021/04/25 08:22:23;0.00;0.00;0.62;0.00;0.00;0.62;3.30;1.40;;;22.70;20.30;;;;;;2269473;61;20465;-68
2021/04/25 08:24:50;0.00;0.00;0.62;0.00;0.00;0.62;3.50;1.30;;;22.70;20.30;;;;;;2269290;61;20349;-67
2021/04/25 08:27:16;0.00;0.00;0.62;0.00;0.00;0.62;2.90;1.23;;;22.70;20.30;;;;;;2269953;61;20354;-62
2021/04/25 08:29:43;0.00;0.00;0.62;0.00;0.00;0.62;2.60;1.30;;;22.80;20.40;;;;;;2269586;61;20404;-63
2021/04/25 08:32:10;0.00;0.00;0.62;0.00;0.00;0.62;3.77;1.00;;;22.80;20.40;;;;;;2269181;61;20626;-66
2021/04/25 08:34:37;0.00;0.00;0.62;0.00;0.00;0.62;2.17;1.27;;;22.80;20.40;;;;;;2270042;61;20435;-65
2021/04/25 08:37:04;0.00;0.00;0.62;0.00;0.00;0.62;5.47;1.60;;;22.80;20.40;;;;;;2269366;61;20371;-61
2021/04/25 08:39:31;0.00;0.00;0.62;0.00;0.00;0.62;5.00;1.70;;;22.80;20.40;;;;;;2269027;61;20624;-62
2021/04/25 08:41:57;0.00;0.00;0.62;0.00;0.00;0.62;3.10;1.43;;;22.80;20.30;;;;;;2269801;61;20350;-65
2021/04/25 08:44:25;0.00;0.00;0.62;0.00;0.00;0.62;3.63;1.73;;;22.90;20.40;;;;;;2269487;61;20863;-63
2021/04/25 08:46:53;0.00;0.00;0.62;0.00;0.00;0.62;5.10;1.60;;;22.90;20.40;;;;;;2269273;61;20663;-64
2021/04/25 08:49:26;0.00;0.00;0.62;0.00;0.00;0.62;3.03;1.90;;;22.90;20.30;;;;;;2269372;61;20358;-70
2021/04/25 08:51:53;0.00;0.00;0.62;0.00;0.00;0.62;3.40;1.33;;;22.90;20.30;;;;;;2269333;61;20353;-65
2021/04/25 08:54:23;0.00;0.00;0.62;0.00;0.00;0.62;2.60;1.40;;;22.90;20.40;;;;;;2269268;61;20607;-66
2021/04/25 08:56:51;0.00;0.00;0.62;0.00;0.00;0.62;3.17;1.70;;;22.90;20.40;;;;;;2269510;61;20732;-68
2021/04/25 08:59:18;0.00;0.00;0.62;0.00;0.00;0.62;2.20;1.47;;;22.90;20.50;;;;;;2268616;61;20722;-67
2021/04/25 09:01:45;0.00;0.00;0.62;0.00;0.00;0.62;2.47;1.30;;;23.00;20.50;;;;;;2268741;61;20734;-68
2021/04/25 09:04:12;0.00;0.00;0.62;0.00;0.00;0.62;3.00;1.73;;;23.00;20.60;;;;;;2269383;61;20420;-66
2021/04/25 09:06:56;0.00;0.00;0.62;0.00;0.00;0.62;5.00;1.60;;;23.00;20.60;;;;;;2268900;61;20369;-66
2021/04/25 09:09:23;0.00;0.00;0.62;0.00;0.00;0.62;3.87;1.80;;;23.00;20.50;;;;;;2269314;61;20401;-66
2021/04/25 09:11:50;0.00;0.00;0.62;0.00;0.00;0.62;3.37;1.87;;;23.00;20.50;;;;;;2269528;61;20379;-67
2021/04/25 09:14:21;0.00;0.00;0.62;0.00;0.00;0.62;4.17;1.73;;;23.10;20.50;;;;;;2269524;61;20494;-67
2021/04/25 09:16:59;0.00;0.00;0.62;0.00;0.00;0.62;2.73;1.40;;;23.10;20.50;;;;;;2269492;61;20388;-68
2021/04/25 09:19:47;0.00;0.00;0.62;0.00;0.00;0.62;3.07;1.57;;;23.10;20.50;;;;;;2269776;61;20365;-65
2021/04/25 09:22:15;0.00;0.00;0.62;0.00;0.00;0.62;2.73;1.33;;;23.10;20.50;;;;;;2269598;61;20354;-65
2021/04/25 09:24:42;0.00;0.00;0.62;0.00;0.00;0.62;3.03;1.50;;;23.20;20.50;;;;;;2268894;61;20453;-68
2021/04/25 09:27:08;0.00;0.00;0.62;0.00;0.00;0.62;2.97;1.47;;;23.20;20.50;;;;;;2269550;61;20369;-69
2021/04/25 09:29:59;0.00;0.00;0.62;0.00;0.00;0.62;2.20;1.50;;;23.30;20.50;;;;;;2268707;61;20366;-67
2021/04/25 09:32:29;0.00;0.00;0.62;0.00;0.00;0.62;1.60;1.20;;;23.30;20.50;;;;;;2268564;61;20376;-65
2021/04/25 09:35:12;0.00;0.00;0.62;0.00;0.00;0.62;3.77;1.73;;;23.30;20.40;;;;;;2269317;61;20365;-65
2021/04/25 09:37:43;0.00;0.00;0.62;0.00;0.00;0.62;3.70;1.53;;;23.30;20.40;;;;;;2269569;61;20440;-67
2021/04/25 09:40:14;0.00;0.00;0.62;0.00;0.00;0.62;3.70;1.40;;;23.40;20.40;;;;;;2269595;61;20444;-66
2021/04/25 09:43:00;0.00;0.00;0.62;0.00;0.00;0.62;2.37;1.37;;;23.40;20.40;;;;;;2269754;61;20368;-67